KMKT

Mankato Regional Airport

Mankato, Minnesota, USA
KMKT 251741Z 2518/2618 34006KT P6SM SKC FM252100 27005KT P6SM SKC FM260400 19003KT P6SM SCT250 FM261300 24009KT P6SM SCT090 BKN150 FM261500 32014G21KT P6SM BKN040 OVC100
Issued Valid From Valid To
Apr-25 @ 17:41 UTC
(13 minutes ago)
Apr-25 @ 18:00 UTC
(in 6 minutes)
Apr-26 @ 18:00 UTC
(in 24 hours)
Apr-25 @ 18:00 to Apr-25 @ 21:00
KMKT 251741Z 2518/2618 34006KT P6SM SKC
Wind Visibility Clouds
340° at 6 knots Greater than 6 miles
  • Clear skies
From Apr-25 @ 21:00 to Apr-26 @ 04:00
FM252100 27005KT P6SM SKC
Wind Visibility Clouds
270° at 5 knots Greater than 6 miles
  • Clear skies
From Apr-26 @ 04:00 to Apr-26 @ 13:00
FM260400 19003KT P6SM SCT250
Wind Visibility Clouds
190° at 3 knots Greater than 6 miles
  • Scattered at 25,000' AGL
From Apr-26 @ 13:00 to Apr-26 @ 15:00
FM261300 24009KT P6SM SCT090 BKN150
Wind Visibility Clouds
240° at 9 knots Greater than 6 miles
  • Scattered at 9,000' AGL
  • Broken at 15,000' AGL
From Apr-26 @ 15:00 to Apr-26 @ 18:00
FM261500 32014G21KT P6SM BKN040 OVC100
Wind Visibility Clouds
320° at 14 knots
 Gusting to 21 knots
Greater than 6 miles
  • Broken at 4,000' AGL
  • Overcast at 10,000' AGL
KMKT 251741Z 2518/2618 34006KT P6SM SKC FM252100 27005KT P6SM SKC FM260400 19003KT P6SM SCT250 FM261300 24009KT P6SM SCT090 BKN150 FM261500 32014G21KT P6SM BKN040 OVC100
Issued Apr-25 @ 17:41 UTC
(13 minutes ago)
Valid From Apr-25 @ 18:00 UTC
(in 6 minutes)
Valid To Apr-26 @ 18:00 UTC
(in 24 hours)
Apr-25 @ 18:00 - Apr-25 @ 21:00
Wind Visibility
340° at 6 knots Greater than 6 miles
Clouds
  • Clear skies
From Apr-25 @ 21:00 - Apr-26 @ 04:00
Wind Visibility
270° at 5 knots Greater than 6 miles
Clouds
  • Clear skies
From Apr-26 @ 04:00 - Apr-26 @ 13:00
Wind Visibility
190° at 3 knots Greater than 6 miles
Clouds
  • Scattered at 25,000' AGL
From Apr-26 @ 13:00 - Apr-26 @ 15:00
Wind Visibility
240° at 9 knots Greater than 6 miles
Clouds
  • Scattered at 9,000' AGL
  • Broken at 15,000' AGL
From Apr-26 @ 15:00 - Apr-26 @ 18:00
Wind Visibility
320° at 14 knots
 Gusting to 21 knots
Greater than 6 miles
Clouds
  • Broken at 4,000' AGL
  • Overcast at 10,000' AGL